createdAt,value
2023-02-11T00:00:46.278Z,98.74
2023-02-11T00:01:47.869Z,99.52
2023-02-11T00:02:49.579Z,100.00
2023-02-11T00:03:51.305Z,100.00
2023-02-11T00:04:52.542Z,100.00
2023-02-11T00:05:57.873Z,99.97
2023-02-11T00:07:02.759Z,99.04
2023-02-11T00:08:04.051Z,98.86
2023-02-11T00:09:05.776Z,98.50
2023-02-11T00:10:07.501Z,99.33
2023-02-11T00:11:12.098Z,99.04
2023-02-11T00:12:13.352Z,98.72
2023-02-11T00:13:14.815Z,99.54
2023-02-11T00:14:16.038Z,99.83
2023-02-11T00:15:17.505Z,99.86
2023-02-11T00:16:19.867Z,100.00
2023-02-11T00:17:21.412Z,99.48
2023-02-11T00:18:22.888Z,99.83
2023-02-11T00:19:24.351Z,100.00
2023-02-11T00:20:29.340Z,99.55
2023-02-11T00:21:30.948Z,99.17
2023-02-11T00:22:32.338Z,98.57
2023-02-11T00:23:33.660Z,98.77
2023-02-11T00:24:36.278Z,98.17
2023-02-11T00:25:42.063Z,98.60
2023-02-11T00:26:43.561Z,98.18
2023-02-11T00:27:45.070Z,98.95
2023-02-11T00:28:48.493Z,98.84
2023-02-11T00:29:49.681Z,98.64
2023-02-11T00:30:55.274Z,97.77
2023-02-11T00:31:56.714Z,98.28
2023-02-11T00:33:01.132Z,98.57
2023-02-11T00:34:02.681Z,97.95
2023-02-11T00:35:03.996Z,98.19
2023-02-11T00:36:08.109Z,98.20
2023-02-11T00:37:10.067Z,98.46
2023-02-11T00:38:11.258Z,98.50
2023-02-11T00:39:12.606Z,98.05
2023-02-11T00:40:13.906Z,97.82
2023-02-11T00:41:15.831Z,97.66
2023-02-11T00:42:17.263Z,97.95
2023-02-11T00:43:22.127Z,97.53
2023-02-11T00:44:25.139Z,97.69
2023-02-11T00:45:26.419Z,97.67
2023-02-11T00:46:28.222Z,98.33
2023-02-11T00:47:29.519Z,97.39
2023-02-11T00:48:30.911Z,96.83
2023-02-11T00:49:33.662Z,97.30
2023-02-11T00:50:35.349Z,98.09
2023-02-11T00:51:37.597Z,97.54
2023-02-11T00:52:40.475Z,98.05
2023-02-11T00:53:43.296Z,97.32
2023-02-11T00:54:47.284Z,97.50
2023-02-11T00:55:49.357Z,97.55
2023-02-11T00:56:50.918Z,98.47
2023-02-11T00:57:53.550Z,98.08
2023-02-11T00:58:56.491Z,98.81
2023-02-11T01:00:00.363Z,98.05
2023-02-11T01:01:01.995Z,98.21
2023-02-11T01:02:03.897Z,98.34
2023-02-11T01:03:06.617Z,98.51
2023-02-11T01:04:08.047Z,98.14
2023-02-11T01:05:09.460Z,97.85
2023-02-11T01:06:11.233Z,98.47
2023-02-11T01:07:12.698Z,99.11
2023-02-11T01:08:14.229Z,99.68
2023-02-11T01:09:15.523Z,98.92
2023-02-11T01:10:17.133Z,99.14
2023-02-11T01:11:20.128Z,99.13
2023-02-11T01:12:21.403Z,99.08
2023-02-11T01:13:23.081Z,98.88
2023-02-11T01:14:24.583Z,98.99
2023-02-11T01:15:25.997Z,98.76
2023-02-11T01:16:29.391Z,98.34
2023-02-11T01:17:30.857Z,98.14
2023-02-11T01:18:32.317Z,98.41
2023-02-11T01:19:33.623Z,99.04
2023-02-11T01:20:35.407Z,99.21
2023-02-11T01:21:36.654Z,99.00
2023-02-11T01:22:38.135Z,98.79
2023-02-11T01:23:39.438Z,98.93
2023-02-11T01:24:42.738Z,99.12
2023-02-11T01:25:47.725Z,98.85
2023-02-11T01:26:50.279Z,98.04
2023-02-11T01:27:53.832Z,98.03
2023-02-11T01:28:57.145Z,98.33
2023-02-11T01:30:01.013Z,98.20
2023-02-11T01:31:03.019Z,98.61
2023-02-11T01:32:04.503Z,98.47
2023-02-11T01:33:05.847Z,98.45
2023-02-11T01:34:07.115Z,98.06
2023-02-11T01:35:08.489Z,98.20
2023-02-11T01:36:10.930Z,97.82
2023-02-11T01:37:14.381Z,98.25
2023-02-11T01:38:18.162Z,97.89
2023-02-11T01:39:20.626Z,98.45
2023-02-11T01:40:22.925Z,98.21
2023-02-11T01:41:24.178Z,98.95
2023-02-11T01:42:25.413Z,98.27
2023-02-11T01:43:28.245Z,98.46
2023-02-11T01:44:31.719Z,98.07
2023-02-11T01:45:45.203Z,97.50
2023-02-11T01:46:51.774Z,97.36
2023-02-11T01:47:54.157Z,97.34
2023-02-11T01:48:58.103Z,97.72
2023-02-11T01:50:01.474Z,97.75
2023-02-11T01:51:23.051Z,97.87
2023-02-11T01:52:39.321Z,98.21
2023-02-11T01:53:43.385Z,97.83
2023-02-11T01:54:47.290Z,97.97
2023-02-11T01:55:49.371Z,97.46
2023-02-11T01:56:54.486Z,97.89
2023-02-11T01:57:57.870Z,97.87
2023-02-11T01:59:02.740Z,97.93
2023-02-11T02:00:15.593Z,97.93
2023-02-11T02:01:23.150Z,98.08
2023-02-11T02:02:32.759Z,98.07
2023-02-11T02:03:37.056Z,97.82
2023-02-11T02:04:42.118Z,97.45
2023-02-11T02:05:52.085Z,97.70
2023-02-11T02:07:00.014Z,97.91
2023-02-11T02:08:11.529Z,97.67
2023-02-11T02:09:25.378Z,97.52
2023-02-11T02:10:28.362Z,97.83
2023-02-11T02:11:29.601Z,98.06
2023-02-11T02:12:31.112Z,97.80
2023-02-11T02:13:33.207Z,97.54
2023-02-11T02:14:37.937Z,97.61
2023-02-11T02:15:42.575Z,97.51
2023-02-11T02:16:44.533Z,98.20
2023-02-11T02:17:58.063Z,97.97
2023-02-11T02:19:11.484Z,97.72
2023-02-11T02:20:31.696Z,97.56
2023-02-11T02:21:53.351Z,97.20
2023-02-11T02:23:06.631Z,98.16
2023-02-11T02:24:26.910Z,97.82
2023-02-11T02:25:36.200Z,97.81
2023-02-11T02:26:54.078Z,97.77
2023-02-11T02:28:04.676Z,97.34
2023-02-11T02:29:25.244Z,97.50
2023-02-11T02:30:51.496Z,96.88
2023-02-11T02:32:12.279Z,97.36
2023-02-11T02:33:28.929Z,97.20
2023-02-11T02:34:36.271Z,97.13
2023-02-11T02:35:48.462Z,96.91
2023-02-11T02:37:04.304Z,97.21
2023-02-11T02:38:13.707Z,96.61
2023-02-11T02:39:20.206Z,96.54
2023-02-11T02:40:25.339Z,97.22
2023-02-11T02:41:31.243Z,98.04
2023-02-11T02:42:33.255Z,98.05
2023-02-11T02:43:36.525Z,98.35
2023-02-11T02:44:37.818Z,97.83
2023-02-11T02:45:39.063Z,98.05
2023-02-11T02:46:40.515Z,97.83
2023-02-11T02:47:41.840Z,97.55
2023-02-11T02:48:43.247Z,97.39
2023-02-11T02:49:44.603Z,97.60
2023-02-11T02:50:47.227Z,97.21
2023-02-11T02:51:48.647Z,97.07
2023-02-11T02:53:00.681Z,96.92
2023-02-11T02:54:08.061Z,97.08
2023-02-11T02:55:22.080Z,96.96
2023-02-11T02:56:33.475Z,96.92
2023-02-11T02:57:54.076Z,97.54
2023-02-11T02:59:14.296Z,97.01
2023-02-11T03:00:34.152Z,96.72
2023-02-11T03:01:44.696Z,96.45
2023-02-11T03:03:04.940Z,96.55
2023-02-11T03:04:16.194Z,97.11
2023-02-11T03:05:36.216Z,96.87
2023-02-11T03:06:48.186Z,96.77
2023-02-11T03:07:55.393Z,96.24
2023-02-11T03:09:10.397Z,96.33
2023-02-11T03:10:19.331Z,96.15
2023-02-11T03:11:21.988Z,95.91
2023-02-11T03:12:23.599Z,95.99
2023-02-11T03:13:28.084Z,96.46
2023-02-11T03:14:30.557Z,95.75
2023-02-11T03:15:34.732Z,95.94
2023-02-11T03:16:36.712Z,95.49
2023-02-11T03:17:40.324Z,96.11
2023-02-11T03:18:46.636Z,95.07
2023-02-11T03:19:50.286Z,94.87
2023-02-11T03:20:55.232Z,95.79
2023-02-11T03:21:57.292Z,95.33
2023-02-11T03:23:06.171Z,95.96
2023-02-11T03:24:12.102Z,96.12
2023-02-11T03:25:13.717Z,96.05
2023-02-11T03:26:32.402Z,96.36
2023-02-11T03:27:39.553Z,96.54
2023-02-11T03:28:44.111Z,96.23
2023-02-11T03:29:59.925Z,96.07
2023-02-11T03:31:09.489Z,95.92
2023-02-11T03:32:17.074Z,95.93
2023-02-11T03:33:30.661Z,96.41
2023-02-11T03:34:47.687Z,96.06
2023-02-11T03:35:53.995Z,96.16
2023-02-11T03:37:11.744Z,96.09
2023-02-11T03:38:24.670Z,96.35
2023-02-11T03:39:29.674Z,96.87
2023-02-11T03:40:38.599Z,96.42
2023-02-11T03:41:40.934Z,96.90
2023-02-11T03:42:52.047Z,96.67
2023-02-11T03:43:55.660Z,96.74
2023-02-11T03:45:00.248Z,96.63
2023-02-11T03:46:02.996Z,96.44
2023-02-11T03:47:07.764Z,96.09
2023-02-11T03:48:14.579Z,95.82
2023-02-11T03:50:35.967Z,96.29
2023-02-11T03:51:37.960Z,96.41
2023-02-11T03:52:39.355Z,95.50
2023-02-11T03:53:43.098Z,96.13
2023-02-11T03:54:46.679Z,95.85
2023-02-11T03:55:49.592Z,95.82
2023-02-11T03:56:53.896Z,95.84
2023-02-11T03:57:55.731Z,95.28
2023-02-11T03:58:57.726Z,95.53
2023-02-11T03:59:59.179Z,94.80
2023-02-11T04:01:00.496Z,95.13
2023-02-11T04:02:01.832Z,94.58
2023-02-11T04:03:04.213Z,94.33
2023-02-11T04:04:05.815Z,94.46
2023-02-11T04:05:07.940Z,95.03
2023-02-11T04:06:09.197Z,95.20
2023-02-11T04:07:12.204Z,94.86
2023-02-11T04:08:14.100Z,94.45
2023-02-11T04:09:15.423Z,94.83
2023-02-11T04:10:16.973Z,95.05
2023-02-11T04:11:18.222Z,94.69
2023-02-11T04:12:19.944Z,95.20
2023-02-11T04:13:22.240Z,95.06
2023-02-11T04:14:23.517Z,95.09
2023-02-11T04:15:25.190Z,95.45
2023-02-11T04:16:26.521Z,95.26
2023-02-11T04:17:27.768Z,95.88
2023-02-11T04:18:29.190Z,95.49
2023-02-11T04:19:30.363Z,96.00
2023-02-11T04:20:32.848Z,95.93
2023-02-11T04:21:34.888Z,96.16
2023-02-11T04:22:36.663Z,96.05
2023-02-11T04:23:38.042Z,96.41
2023-02-11T04:24:39.714Z,95.68
2023-02-11T04:25:41.026Z,95.67
2023-02-11T04:26:43.991Z,95.49
2023-02-11T04:27:45.463Z,95.90
2023-02-11T04:28:46.891Z,95.56
2023-02-11T04:29:50.297Z,95.04
2023-02-11T04:30:54.933Z,95.20
2023-02-11T04:31:56.572Z,95.77
2023-02-11T04:32:58.230Z,95.70
2023-02-11T04:33:59.508Z,95.64
2023-02-11T04:35:01.810Z,95.68
2023-02-11T04:36:03.444Z,95.80
2023-02-11T04:37:05.145Z,95.03
2023-02-11T04:38:06.499Z,95.83
2023-02-11T04:39:07.732Z,95.27
2023-02-11T04:40:09.438Z,95.41
2023-02-11T04:41:10.692Z,94.55
2023-02-11T04:42:14.529Z,94.42
2023-02-11T04:43:19.922Z,94.19
2023-02-11T04:44:21.634Z,94.42
2023-02-11T04:45:23.503Z,93.57
2023-02-11T04:46:24.983Z,93.96
2023-02-11T04:47:26.526Z,94.00
2023-02-11T04:48:34.992Z,93.46
2023-02-11T04:49:36.439Z,93.85
2023-02-11T04:50:37.720Z,93.53
2023-02-11T04:51:38.938Z,93.48
2023-02-11T04:52:40.239Z,93.99
2023-02-11T04:53:41.508Z,93.19
2023-02-11T04:54:42.819Z,94.09
2023-02-11T04:55:48.681Z,94.30
2023-02-11T04:56:50.121Z,93.58
2023-02-11T04:57:51.664Z,92.84
2023-02-11T04:58:53.979Z,93.53
2023-02-11T04:59:55.520Z,93.15
2023-02-11T05:01:05.094Z,92.66
2023-02-11T05:02:07.554Z,93.12
2023-02-11T05:03:08.897Z,92.80
2023-02-11T05:04:10.299Z,93.02
2023-02-11T05:05:11.835Z,93.00
2023-02-11T05:06:14.674Z,93.12
2023-02-11T05:07:16.015Z,93.13
2023-02-11T05:08:18.282Z,92.85
2023-02-11T05:09:19.542Z,93.14
2023-02-11T05:10:20.892Z,93.62
2023-02-11T05:11:24.045Z,93.84
2023-02-11T05:12:25.519Z,93.88
2023-02-11T05:13:28.522Z,93.79
2023-02-11T05:14:32.507Z,93.57
2023-02-11T05:15:35.887Z,93.41
2023-02-11T05:16:38.060Z,93.73
2023-02-11T05:17:39.569Z,92.93
2023-02-11T05:18:41.829Z,93.06
2023-02-11T05:19:43.290Z,93.51
2023-02-11T05:20:44.586Z,93.37
2023-02-11T05:22:01.400Z,93.25
2023-02-11T05:23:03.671Z,93.50
2023-02-11T05:24:05.183Z,93.20
2023-02-11T05:25:06.578Z,92.86
2023-02-11T05:26:07.850Z,93.67
2023-02-11T05:27:09.297Z,92.62
2023-02-11T05:28:10.549Z,92.61
2023-02-11T05:29:13.183Z,92.59
2023-02-11T05:30:14.624Z,92.21
2023-02-11T05:31:15.883Z,92.31
2023-02-11T05:32:17.103Z,91.66
2023-02-11T05:33:21.311Z,91.56
2023-02-11T05:34:22.894Z,92.02
2023-02-11T05:35:24.411Z,92.48
2023-02-11T05:36:26.629Z,92.44
2023-02-11T05:37:27.923Z,92.43
2023-02-11T05:38:29.290Z,92.30
2023-02-11T05:39:30.564Z,92.80
2023-02-11T05:40:32.151Z,92.33
2023-02-11T05:41:35.407Z,92.17
2023-02-11T05:42:36.665Z,92.86
2023-02-11T05:43:38.385Z,92.08
2023-02-11T05:44:39.774Z,92.14
2023-02-11T05:45:42.594Z,92.29
2023-02-11T05:46:43.889Z,91.90
2023-02-11T05:47:45.151Z,92.32
2023-02-11T05:48:46.963Z,92.67
2023-02-11T05:49:48.260Z,92.11
2023-02-11T05:50:49.595Z,91.74
2023-02-11T05:51:51.164Z,91.62
2023-02-11T05:52:52.740Z,92.12
2023-02-11T05:53:55.429Z,91.95
2023-02-11T05:54:56.640Z,92.06
2023-02-11T05:55:59.152Z,92.24
2023-02-11T05:57:00.675Z,92.39
2023-02-11T05:58:02.188Z,92.51
2023-02-11T05:59:03.885Z,91.83
2023-02-11T06:00:05.657Z,92.26
2023-02-11T06:01:13.851Z,91.92
2023-02-11T06:02:15.202Z,92.04
2023-02-11T06:03:16.583Z,92.32
2023-02-11T06:04:18.118Z,92.13
2023-02-11T06:05:19.586Z,91.97
2023-02-11T06:06:21.268Z,91.87
2023-02-11T06:07:22.538Z,91.11
2023-02-11T06:08:25.496Z,91.80
2023-02-11T06:09:26.920Z,91.89
2023-02-11T06:10:28.198Z,92.09
2023-02-11T06:11:30.657Z,92.08
2023-02-11T06:12:31.883Z,92.22
2023-02-11T06:13:33.116Z,92.29
2023-02-11T06:14:34.511Z,92.17
2023-02-11T06:15:35.827Z,92.55
2023-02-11T06:16:37.359Z,91.70
2023-02-11T06:17:38.850Z,92.44
2023-02-11T06:18:40.474Z,92.53
2023-02-11T06:19:41.695Z,91.87
2023-02-11T06:20:43.052Z,92.67
2023-02-11T06:21:44.763Z,91.74
2023-02-11T06:22:46.404Z,91.50
2023-02-11T06:23:47.748Z,91.38
2023-02-11T06:25:00.892Z,91.43
2023-02-11T06:26:04.111Z,91.70
2023-02-11T06:27:05.611Z,91.48
2023-02-11T06:28:06.961Z,91.84
2023-02-11T06:29:09.466Z,92.11
2023-02-11T06:30:11.005Z,91.69
2023-02-11T06:31:12.652Z,91.30
2023-02-11T06:32:36.974Z,91.51
2023-02-11T06:33:36.292Z,92.02
2023-02-11T06:34:38.424Z,91.33
2023-02-11T06:35:39.755Z,91.46
2023-02-11T06:36:41.068Z,91.66
2023-02-11T06:37:43.888Z,92.14
2023-02-11T06:38:45.783Z,92.54
2023-02-11T06:39:48.620Z,92.01
2023-02-11T06:40:50.136Z,91.57
2023-02-11T06:41:51.470Z,92.07
2023-02-11T06:42:53.042Z,91.66
2023-02-11T06:43:54.306Z,91.50
2023-02-11T06:44:55.703Z,91.31
2023-02-11T06:45:57.307Z,91.08
2023-02-11T06:46:58.704Z,91.26
2023-02-11T06:47:59.955Z,91.27
2023-02-11T06:49:01.284Z,91.58
2023-02-11T06:50:03.408Z,92.20
2023-02-11T06:51:05.895Z,92.38
2023-02-11T06:52:07.723Z,92.36
2023-02-11T06:53:09.241Z,92.15
2023-02-11T06:54:11.272Z,92.36
2023-02-11T06:55:12.703Z,92.31
2023-02-11T06:56:17.598Z,91.27
2023-02-11T06:57:20.131Z,91.00
2023-02-11T06:58:21.475Z,91.71
2023-02-11T06:59:23.079Z,91.35
2023-02-11T07:00:24.374Z,92.03
2023-02-11T07:01:26.491Z,91.44
2023-02-11T07:02:28.143Z,91.65
2023-02-11T07:03:29.459Z,91.69
2023-02-11T07:04:30.922Z,91.81
2023-02-11T07:05:32.342Z,91.16
2023-02-11T07:06:33.690Z,91.86
2023-02-11T07:07:35.031Z,91.49
2023-02-11T07:08:37.508Z,91.04
2023-02-11T07:09:41.172Z,90.96
2023-02-11T07:10:42.679Z,91.34
2023-02-11T07:11:46.440Z,91.28
2023-02-11T07:12:48.703Z,91.18
2023-02-11T07:13:53.236Z,91.14
2023-02-11T07:14:55.790Z,90.89
2023-02-11T07:15:57.037Z,90.90
2023-02-11T07:16:58.394Z,91.39
2023-02-11T07:17:59.631Z,90.46
2023-02-11T07:19:00.947Z,90.73
2023-02-11T07:20:05.127Z,90.40
2023-02-11T07:21:06.980Z,90.91
2023-02-11T07:22:08.289Z,90.98
2023-02-11T07:23:09.530Z,90.48
2023-02-11T07:24:13.220Z,90.95
2023-02-11T07:25:14.561Z,90.46
2023-02-11T07:26:16.856Z,90.40
2023-02-11T07:27:18.094Z,90.53
2023-02-11T07:28:21.807Z,90.45
2023-02-11T07:29:23.102Z,90.88
2023-02-11T07:30:24.803Z,90.56
2023-02-11T07:31:27.750Z,91.00
2023-02-11T07:32:29.672Z,91.53
2023-02-11T07:33:31.007Z,91.23
2023-02-11T07:34:32.552Z,91.36
2023-02-11T07:35:36.820Z,90.86
2023-02-11T07:36:38.430Z,90.89
2023-02-11T07:37:41.033Z,90.59
2023-02-11T07:38:44.084Z,91.29
2023-02-11T07:39:45.318Z,89.99
2023-02-11T07:40:48.023Z,90.33
2023-02-11T07:41:49.381Z,90.10
2023-02-11T07:42:51.473Z,89.64
2023-02-11T07:43:53.049Z,90.16
2023-02-11T07:44:54.594Z,90.16
2023-02-11T07:45:57.834Z,90.30
2023-02-11T07:46:59.667Z,89.96
2023-02-11T07:48:01.052Z,90.04
2023-02-11T07:49:02.280Z,89.86
2023-02-11T07:50:03.709Z,89.37
2023-02-11T07:51:05.947Z,90.12
2023-02-11T07:52:07.289Z,90.20
2023-02-11T07:53:08.894Z,89.82
2023-02-11T07:54:10.215Z,89.97
2023-02-11T07:55:11.798Z,89.76
2023-02-11T07:56:14.320Z,89.54
2023-02-11T07:57:15.616Z,88.46
2023-02-11T07:58:16.900Z,88.32
2023-02-11T07:59:18.108Z,88.45
2023-02-11T08:00:21.133Z,88.49
2023-02-11T08:01:23.893Z,88.19
2023-02-11T08:02:25.378Z,88.20
2023-02-11T08:03:26.934Z,87.70
2023-02-11T08:04:28.400Z,88.02
2023-02-11T08:05:29.727Z,87.99
2023-02-11T08:06:32.242Z,87.11
2023-02-11T08:07:33.534Z,87.27
2023-02-11T08:08:34.905Z,86.56
2023-02-11T08:09:36.176Z,86.65
2023-02-11T08:10:37.541Z,86.85
2023-02-11T08:11:38.840Z,85.84
2023-02-11T08:12:40.120Z,86.55
2023-02-11T08:13:41.631Z,86.45
2023-02-11T08:14:43.196Z,86.38
2023-02-11T08:15:44.593Z,86.25
2023-02-11T08:16:46.165Z,86.79
2023-02-11T08:17:47.443Z,87.02
2023-02-11T08:18:49.405Z,87.04
2023-02-11T08:19:50.871Z,86.87
2023-02-11T08:20:53.333Z,87.16
2023-02-11T08:21:58.031Z,87.43
2023-02-11T08:22:59.391Z,87.57
2023-02-11T08:24:01.674Z,87.58
2023-02-11T08:25:06.215Z,87.71
2023-02-11T08:26:13.062Z,88.16
2023-02-11T08:27:14.292Z,87.44
2023-02-11T08:28:15.570Z,87.59
2023-02-11T08:29:18.429Z,87.20
2023-02-11T08:30:20.127Z,87.16
2023-02-11T08:31:22.894Z,87.61
2023-02-11T08:32:24.209Z,87.56
2023-02-11T08:33:27.129Z,87.77
2023-02-11T08:34:28.534Z,87.24
2023-02-11T08:35:32.407Z,87.49
2023-02-11T08:36:36.842Z,87.65
2023-02-11T08:37:40.551Z,87.10
2023-02-11T08:38:42.292Z,87.31
2023-02-11T08:39:44.116Z,86.32
2023-02-11T08:40:45.360Z,86.18
2023-02-11T08:41:51.128Z,86.44
2023-02-11T08:42:52.381Z,86.84
2023-02-11T08:43:54.035Z,86.25
2023-02-11T08:44:55.474Z,86.31
2023-02-11T08:46:01.891Z,85.99
2023-02-11T08:47:03.523Z,85.71
2023-02-11T08:48:04.735Z,85.16
2023-02-11T08:49:07.473Z,85.09
2023-02-11T08:50:08.845Z,84.61
2023-02-11T08:51:13.295Z,84.48
2023-02-11T08:52:14.538Z,84.44
2023-02-11T08:53:15.903Z,84.66
2023-02-11T08:54:17.747Z,84.69
2023-02-11T08:55:19.030Z,84.46
2023-02-11T08:56:20.999Z,84.46
2023-02-11T08:57:22.371Z,84.22
2023-02-11T08:58:24.092Z,84.02
2023-02-11T08:59:25.355Z,84.09
2023-02-11T09:00:26.952Z,84.29
2023-02-11T09:01:31.825Z,84.15
2023-02-11T09:02:58.900Z,84.08
2023-02-11T09:04:00.619Z,84.11
2023-02-11T09:05:02.179Z,84.04
2023-02-11T09:06:05.137Z,83.28
2023-02-11T09:07:08.026Z,83.13
2023-02-11T09:08:09.616Z,83.69
2023-02-11T09:09:13.274Z,83.52
2023-02-11T09:10:14.794Z,83.18
2023-02-11T09:11:17.126Z,83.18
2023-02-11T09:12:18.647Z,82.67
2023-02-11T09:13:19.946Z,82.95
2023-02-11T09:14:23.702Z,82.71
2023-02-11T09:15:25.191Z,82.21
2023-02-11T09:16:29.438Z,82.34
2023-02-11T09:17:30.806Z,82.44
2023-02-11T09:18:35.243Z,81.90
2023-02-11T09:19:36.480Z,81.70
2023-02-11T09:23:10.007Z,81.48
2023-02-11T09:24:11.636Z,80.88
2023-02-11T09:25:12.931Z,80.62
2023-02-11T09:26:15.881Z,80.78
2023-02-11T09:27:17.303Z,81.21
2023-02-11T09:28:18.652Z,80.80
2023-02-11T09:29:19.966Z,81.18
2023-02-11T09:30:21.596Z,80.78
2023-02-11T09:31:24.473Z,81.22
2023-02-11T09:32:25.886Z,81.13
2023-02-11T09:33:28.287Z,81.28
2023-02-11T09:34:29.595Z,81.21
2023-02-11T09:35:30.867Z,81.12
2023-02-11T09:36:33.820Z,81.37
2023-02-11T09:37:37.314Z,80.79
2023-02-11T09:38:38.935Z,80.42
2023-02-11T09:39:40.332Z,80.00
2023-02-11T09:40:42.499Z,80.43
2023-02-11T09:42:02.561Z,80.16
2023-02-11T09:43:06.810Z,80.06
2023-02-11T09:44:11.411Z,80.20
2023-02-11T09:45:15.850Z,80.33
2023-02-11T09:46:17.747Z,80.56
2023-02-11T09:47:28.093Z,79.94
2023-02-11T09:48:36.031Z,79.87
2023-02-11T09:49:42.837Z,79.79
2023-02-11T09:50:50.311Z,80.31
2023-02-11T09:51:58.685Z,80.33
2023-02-11T09:53:05.170Z,79.59
2023-02-11T09:54:21.176Z,80.20
2023-02-11T09:55:25.140Z,80.13
2023-02-11T09:56:28.071Z,80.55
2023-02-11T09:57:36.420Z,80.56
2023-02-11T09:58:39.956Z,80.49
2023-02-11T09:59:41.292Z,80.50
2023-02-11T10:00:42.508Z,81.64
2023-02-11T10:01:48.097Z,80.74
2023-02-11T10:03:04.964Z,81.33
2023-02-11T10:04:26.530Z,81.96
2023-02-11T10:05:56.215Z,82.00
2023-02-11T10:07:00.360Z,81.98
2023-02-11T10:08:08.706Z,82.22
2023-02-11T10:09:18.889Z,82.56
2023-02-11T10:10:32.239Z,82.56
2023-02-11T10:11:40.960Z,82.42
2023-02-11T10:12:53.904Z,82.53
2023-02-11T10:14:13.651Z,82.89
2023-02-11T10:15:27.296Z,83.20
2023-02-11T10:16:35.501Z,82.94
2023-02-11T10:17:45.838Z,82.87
2023-02-11T10:18:57.830Z,82.89
2023-02-11T10:20:04.830Z,82.61
2023-02-11T10:21:06.073Z,82.78
2023-02-11T10:22:25.572Z,82.80
2023-02-11T10:23:30.004Z,82.52
2023-02-11T10:24:31.544Z,81.80
2023-02-11T10:25:43.167Z,81.70
2023-02-11T10:26:48.771Z,81.77
2023-02-11T10:27:51.216Z,81.73
2023-02-11T10:28:54.360Z,81.99
2023-02-11T10:30:08.160Z,82.13
2023-02-11T10:31:11.101Z,82.09
2023-02-11T10:32:25.574Z,82.33
2023-02-11T10:33:30.291Z,81.88
2023-02-11T10:34:31.512Z,82.35
2023-02-11T10:35:33.076Z,81.94
2023-02-11T10:36:37.986Z,82.23
2023-02-11T10:37:39.343Z,81.09
2023-02-11T10:38:40.838Z,80.74
2023-02-11T10:39:42.122Z,82.02
2023-02-11T10:40:43.719Z,82.10
2023-02-11T10:41:47.131Z,81.66
2023-02-11T10:42:55.555Z,81.88
2023-02-11T10:43:59.069Z,82.57
2023-02-11T10:45:02.380Z,82.19
2023-02-11T10:46:04.893Z,82.97
2023-02-11T10:47:27.065Z,82.60
2023-02-11T10:48:45.682Z,83.02
2023-02-11T10:49:47.571Z,82.69
2023-02-11T10:50:49.023Z,82.23
2023-02-11T10:51:51.823Z,81.49
2023-02-11T10:52:53.290Z,82.33
2023-02-11T10:54:03.627Z,82.14
2023-02-11T10:55:04.902Z,81.78
2023-02-11T10:56:07.075Z,82.01
2023-02-11T10:57:18.224Z,82.70
2023-02-11T10:58:28.135Z,82.45
2023-02-11T10:59:31.234Z,82.73
2023-02-11T11:00:37.013Z,81.48
2023-02-11T11:01:50.698Z,81.79
2023-02-11T11:02:54.373Z,83.18
2023-02-11T11:03:55.901Z,82.52
2023-02-11T11:04:58.537Z,82.56
2023-02-11T11:06:05.156Z,81.94
2023-02-11T11:07:11.729Z,81.78
2023-02-11T11:08:13.142Z,81.62
2023-02-11T11:09:26.913Z,81.18
2023-02-11T11:10:38.863Z,81.14
2023-02-11T11:11:51.116Z,80.47
2023-02-11T11:12:52.555Z,81.20
2023-02-11T11:13:53.871Z,81.36
2023-02-11T11:15:00.506Z,81.45
2023-02-11T11:16:13.580Z,80.44
2023-02-11T11:17:18.742Z,79.96
2023-02-11T11:18:23.620Z,80.04
2023-02-11T11:19:25.760Z,80.49
2023-02-11T11:20:29.685Z,80.10
2023-02-11T11:21:41.391Z,79.45
2023-02-11T11:22:43.237Z,79.91
2023-02-11T11:23:56.200Z,79.93
2023-02-11T11:24:57.462Z,80.06
2023-02-11T11:26:01.556Z,79.40
2023-02-11T11:27:04.227Z,79.76
2023-02-11T11:28:05.671Z,79.75
2023-02-11T11:29:09.772Z,79.99
2023-02-11T11:30:15.708Z,79.24
2023-02-11T11:31:18.950Z,78.96
2023-02-11T11:32:25.105Z,79.52
2023-02-11T11:33:28.589Z,78.39
2023-02-11T11:34:42.927Z,78.05
2023-02-11T11:35:54.049Z,78.62
2023-02-11T11:36:56.141Z,78.85
2023-02-11T11:38:01.866Z,78.75
2023-02-11T11:39:23.936Z,77.57
2023-02-11T11:40:29.675Z,76.79
2023-02-11T11:41:32.611Z,77.49
2023-02-11T11:42:35.371Z,76.97
2023-02-11T11:43:36.700Z,76.17
2023-02-11T11:44:39.814Z,74.93
2023-02-11T11:45:57.874Z,74.55
2023-02-11T11:47:11.643Z,74.23
2023-02-11T11:48:18.712Z,74.27
2023-02-11T11:49:24.065Z,74.19
2023-02-11T11:50:30.814Z,73.95
2023-02-11T11:51:32.431Z,73.93
2023-02-11T11:52:33.722Z,73.58
2023-02-11T11:53:41.620Z,73.35
2023-02-11T11:54:46.166Z,73.01
2023-02-11T11:55:51.418Z,73.33
2023-02-11T11:57:31.191Z,73.64
2023-02-11T11:58:32.839Z,73.57
2023-02-11T11:59:34.114Z,73.70
2023-02-11T12:00:40.162Z,73.97
2023-02-11T12:01:59.872Z,73.82
2023-02-11T12:03:20.379Z,73.80
2023-02-11T12:04:27.459Z,73.31
2023-02-11T12:05:37.537Z,73.38
2023-02-11T12:06:53.751Z,73.31
2023-02-11T12:08:01.163Z,72.19
2023-02-11T12:09:02.476Z,72.28
2023-02-11T12:10:22.531Z,71.93
2023-02-11T12:11:37.072Z,71.31
2023-02-11T12:12:38.324Z,71.88
2023-02-11T12:13:55.478Z,71.90
2023-02-11T12:14:56.806Z,71.51
2023-02-11T12:16:10.585Z,71.99
2023-02-11T12:17:24.527Z,71.97
2023-02-11T12:18:36.152Z,72.94
2023-02-11T12:19:54.644Z,72.94
2023-02-11T12:21:14.531Z,72.49
2023-02-11T12:22:30.076Z,72.94
2023-02-11T12:23:31.509Z,72.16
2023-02-11T12:24:55.503Z,72.29
2023-02-11T12:26:15.878Z,72.33
2023-02-11T12:27:34.234Z,72.97
2023-02-11T12:28:44.686Z,71.63
2023-02-11T12:29:49.133Z,71.40
2023-02-11T12:31:02.290Z,70.57
2023-02-11T12:32:14.899Z,70.98
2023-02-11T12:33:25.874Z,71.38
2023-02-11T12:34:35.773Z,71.37
2023-02-11T12:35:42.135Z,70.68
2023-02-11T12:37:00.227Z,71.74
2023-02-11T12:38:09.875Z,71.67
2023-02-11T12:39:17.481Z,71.17
2023-02-11T12:40:39.096Z,71.74
2023-02-11T12:41:53.937Z,71.05
2023-02-11T12:43:00.274Z,71.59
2023-02-11T12:44:04.253Z,72.51
2023-02-11T12:45:11.406Z,71.81
2023-02-11T12:46:27.911Z,71.65
2023-02-11T12:47:44.480Z,72.74
2023-02-11T12:48:52.862Z,72.57
2023-02-11T12:50:04.011Z,72.72
2023-02-11T12:51:28.803Z,72.97
2023-02-11T12:52:50.292Z,73.37
2023-02-11T12:54:10.121Z,73.99
2023-02-11T12:55:22.761Z,74.00
2023-02-11T12:56:27.927Z,73.89
2023-02-11T12:57:32.057Z,74.60
2023-02-11T12:58:44.924Z,74.73
2023-02-11T12:59:50.965Z,74.27
2023-02-11T13:00:57.892Z,74.12
2023-02-11T13:02:01.099Z,73.91
2023-02-11T13:03:10.935Z,74.14
2023-02-11T13:04:25.685Z,73.51
2023-02-11T13:05:50.584Z,74.38
2023-02-11T13:06:55.695Z,74.83
2023-02-11T13:08:02.828Z,75.02
2023-02-11T13:09:11.130Z,74.52
2023-02-11T13:10:23.527Z,74.73
2023-02-11T13:11:28.973Z,74.77
2023-02-11T13:12:32.332Z,75.15
2023-02-11T13:13:47.112Z,75.32
2023-02-11T13:14:50.029Z,75.52
2023-02-11T13:16:05.229Z,74.61
2023-02-11T13:17:13.751Z,74.46
2023-02-11T13:18:16.809Z,74.66
2023-02-11T13:19:32.955Z,74.51
2023-02-11T13:20:38.460Z,74.11
2023-02-11T13:21:45.908Z,73.81
2023-02-11T13:22:54.654Z,74.78
2023-02-11T13:24:01.500Z,74.77
2023-02-11T13:25:05.772Z,74.14
2023-02-11T13:26:13.132Z,74.16
2023-02-11T13:27:29.457Z,73.95
2023-02-11T13:28:57.232Z,74.13
2023-02-11T13:30:17.239Z,73.92
2023-02-11T13:31:18.655Z,74.05
2023-02-11T13:32:20.160Z,74.33
2023-02-11T13:33:30.705Z,73.93
2023-02-11T13:34:41.254Z,72.82
2023-02-11T13:35:45.895Z,73.34
2023-02-11T13:36:53.862Z,73.98
2023-02-11T13:37:55.831Z,73.38
2023-02-11T13:38:58.865Z,73.46
2023-02-11T13:40:09.839Z,73.75
2023-02-11T13:41:11.388Z,73.09
2023-02-11T13:42:16.150Z,73.79
2023-02-11T13:43:23.112Z,73.51
2023-02-11T13:44:26.113Z,73.68
2023-02-11T13:45:36.017Z,73.66
2023-02-11T13:46:53.841Z,72.82
2023-02-11T13:47:59.332Z,73.21
2023-02-11T13:49:00.728Z,73.46
2023-02-11T13:50:04.157Z,73.52
2023-02-11T13:51:10.381Z,73.66
2023-02-11T13:52:19.684Z,73.07
2023-02-11T13:53:21.609Z,72.93
2023-02-11T13:54:28.301Z,71.98
2023-02-11T13:55:30.329Z,72.43
2023-02-11T13:56:36.990Z,72.72
2023-02-11T13:57:39.010Z,71.20
2023-02-11T13:58:49.991Z,70.79
2023-02-11T13:59:53.121Z,70.83
2023-02-11T14:00:55.119Z,70.91